Contargo III & Xii — PD5101 — position and weather

sailwx.info

Track history (hours):
 
Tides and Currents Weather Stations Pressure Air Temp Water Temp Dewpoint Dewpoint Depression Visibility Wind Speed Wind Dir Waves Ship Positions

Contargo III & Xii

Last reported at 2014-Dec-22 04:31 UTC. Time now 2014-Dec-22 05:34 UTC.
Position N 51°52' E 005°57'.

Length 182 m; draft 1 m.

Type: Ship. MMSI: 244670090.

Date/timePositionNaut miles runAvg speedWind from/ knotsBaromVisibWave heightAir tempDewpointWater temp
2014-Dec-22 04:31N 51°52' E 005°57'9 8.6
2014-Dec-22 03:29N 51°50' E 006°11'10 9.8
2014-Dec-22 02:25N 51°45' E 006°25'15 7.7
2014-Dec-22 00:31N 51°34' E 006°41'15 7.1
2014-Dec-21 22:24N 51°19' E 006°44'5 6.3
2014-Dec-21 21:34N 51°14' E 006°44'6 6.1
2014-Dec-21 20:34N 51°10' E 006°51'17 8.2
2014-Dec-21 18:26N 50°54' E 007°02'105 7.0
2014-Dec-21 03:24N 49°25' E 008°30'7 8.0
2014-Dec-21 02:29N 49°18' E 008°29'9 9.3
2014-Dec-21 01:34N 49°11' E 008°22'1010.1
2014-Dec-21 00:34N 49°01' E 008°18'1010.2
2014-Dec-20 23:33N 48°53' E 008°08'5 4.8
2014-Dec-20 22:33N 48°48' E 008°06'7 7.1
2014-Dec-20 21:33N 48°43' E 007°58'66 3.8
2014-Dec-20 04:15N 47°40' E 007°31'2 2.5
2014-Dec-20 03:33N 47°39' E 007°32'3 3.2
2014-Dec-20 02:30N 47°36' E 007°35'0 0.0
2014-Dec-20 01:34N 47°36' E 007°36'0 0.0
2014-Dec-20 00:34N 47°36' E 007°36'0 0.0
2014-Dec-19 23:34N 47°36' E 007°35'0 0.0
2014-Dec-19 22:33N 47°36' E 007°35'0 0.0
2014-Dec-19 21:34N 47°36' E 007°35'1 0.6
2014-Dec-19 19:34N 47°35' E 007°36'0 0.0
2014-Dec-19 18:33N 47°35' E 007°36'0 0.1
2014-Dec-19 17:33N 47°35' E 007°36'0 0.0
2014-Dec-19 16:33N 47°35' E 007°36'0 0.0
2014-Dec-19 15:33N 47°35' E 007°36'0 0.0
2014-Dec-19 14:33N 47°35' E 007°36'0 0.0
2014-Dec-19 13:33N 47°35' E 007°36'0 0.0
2014-Dec-19 12:33N 47°35' E 007°36'0 0.0
2014-Dec-19 11:33N 47°35' E 007°36'0 0.1
2014-Dec-19 10:34N 47°35' E 007°36'2 1.7
2014-Dec-19 09:34N 47°33' E 007°36'2 1.7
2014-Dec-19 08:34N 47°34' E 007°38'1 0.6
2014-Dec-19 07:34N 47°33' E 007°39'0 0.0
2014-Dec-19 06:33N 47°33' E 007°39'0 0.0
2014-Dec-19 05:33N 47°33' E 007°39'0 0.0
2014-Dec-19 04:34N 47°33' E 007°39'0 0.0
2014-Dec-19 03:33N 47°33' E 007°39'0 0.0
2014-Dec-19 02:33N 47°33' E 007°39'0 0.0
2014-Dec-19 01:33N 47°33' E 007°39'0 0.0
2014-Dec-19 00:33N 47°33' E 007°39'0 0.0
2014-Dec-18 23:33N 47°33' E 007°39'0 0.0
2014-Dec-18 22:33N 47°33' E 007°39'0 0.0
2014-Dec-18 21:33N 47°33' E 007°39'0 0.0
2014-Dec-18 20:34N 47°33' E 007°39'0 0.0
2014-Dec-18 19:34N 47°33' E 007°39'0 0.0
2014-Dec-18 18:34N 47°33' E 007°39'0 0.0
2014-Dec-18 17:34N 47°33' E 007°39'0 0.3
2014-Dec-18 16:34N 47°33' E 007°39'0 0.0
2014-Dec-18 14:34N 47°33' E 007°39'0 0.0
2014-Dec-18 13:33N 47°33' E 007°39'0 0.2
2014-Dec-18 12:33N 47°33' E 007°39'3 2.4
2014-Dec-18 11:14N 47°35' E 007°35'1 0.9
2014-Dec-18 10:33N 47°35' E 007°36'0 0.0
2014-Dec-18 09:33N 47°35' E 007°36'0 0.0
2014-Dec-18 08:33N 47°35' E 007°36'0 0.0
2014-Dec-18 07:33N 47°35' E 007°36'0 0.0
2014-Dec-18 06:33N 47°35' E 007°36'0 0.0
2014-Dec-18 05:34N 47°35' E 007°36'0 0.0
2014-Dec-18 04:34N 47°35' E 007°36'0 0.0
2014-Dec-18 03:34N 47°35' E 007°36'0 0.0
2014-Dec-18 02:33N 47°35' E 007°36'0 0.0
2014-Dec-18 01:34N 47°35' E 007°36'0 0.0
2014-Dec-18 00:34N 47°35' E 007°36'0 0.0
2014-Dec-17 23:33N 47°35' E 007°36'0 0.0
2014-Dec-17 22:33N 47°35' E 007°36'0 0.0
2014-Dec-17 21:33N 47°35' E 007°36'0 0.1
2014-Dec-17 20:33N 47°35' E 007°36'0 0.0
2014-Dec-17 19:33N 47°35' E 007°36'0 0.0
2014-Dec-17 18:33N 47°35' E 007°36'0 0.0
2014-Dec-17 17:33N 47°35' E 007°36'0 0.0
2014-Dec-17 16:34N 47°35' E 007°36'0 0.0
2014-Dec-17 15:34N 47°35' E 007°36'0 0.0
2014-Dec-17 14:34N 47°35' E 007°36'0 0.0
2014-Dec-17 13:34N 47°35' E 007°36'0 0.0
2014-Dec-17 12:33N 47°35' E 007°36'1 1.4
2014-Dec-17 11:34N 47°36' E 007°35'0 0.0
2014-Dec-17 10:33N 47°36' E 007°35'0 0.0
2014-Dec-17 09:33N 47°36' E 007°35'0 0.0
2014-Dec-17 08:33N 47°36' E 007°35'0 0.0
2014-Dec-17 07:33N 47°36' E 007°35'0 0.0
2014-Dec-17 06:33N 47°36' E 007°35'0 0.0
2014-Dec-17 05:33N 47°36' E 007°35'0 0.0
2014-Dec-17 04:33N 47°36' E 007°35'0 0.0
2014-Dec-17 03:34N 47°36' E 007°35'0 0.0
2014-Dec-17 02:34N 47°36' E 007°35'0 0.0
2014-Dec-17 01:34N 47°36' E 007°35'0 0.0
2014-Dec-17 00:33N 47°36' E 007°35'0 0.0
2014-Dec-16 23:33N 47°36' E 007°35'0 0.0
2014-Dec-16 22:33N 47°36' E 007°35'0 0.0
2014-Dec-16 21:33N 47°36' E 007°35'0 0.3
2014-Dec-16 20:34N 47°37' E 007°35'3 3.4
2014-Dec-16 19:33N 47°39' E 007°32'63 2.6
2014-Dec-15 19:32N 48°40' E 007°54'4 4.5
2014-Dec-15 18:34N 48°44' E 007°58'7 7.0
2014-Dec-15 17:32N 48°49' E 008°06'5 3.7
2014-Dec-15 16:09N 48°54' E 008°08'3 4.4
2014-Dec-15 15:33N 48°56' E 008°11'4 3.9
2014-Dec-15 14:33N 48°59' E 008°15'4 4.2
2014-Dec-15 13:32N 49°02' E 008°18'4 4.4
2014-Dec-15 12:33N 49°06' E 008°22'4 4.0
2014-Dec-15 11:34N 49°10' E 008°22'4 3.6
2014-Dec-15 10:34N 49°13' E 008°23'4 4.3
2014-Dec-15 09:33N 49°17' E 008°27'3 2.8
2014-Dec-15 08:34N 49°20' E 008°27'6 4.6
2014-Dec-15 07:16N 49°25' E 008°30'3 3.8
2014-Dec-15 06:24N 49°28' E 008°27'98 3.8
2014-Dec-14 04:28N 50°49' E 007°02'3 3.0
2014-Dec-14 03:33N 50°51' E 006°60'3 3.0
2014-Dec-14 02:33N 50°54' E 007°02'4 3.6
2014-Dec-14 01:25N 50°57' E 006°58'10 3.3
2014-Dec-13 22:32N 51°06' E 006°53'4 3.9
2014-Dec-13 21:34N 51°10' E 006°51'2 2.1
2014-Dec-13 20:34N 51°10' E 006°48'3 3.5
2014-Dec-13 19:34N 51°13' E 006°44'2 2.3
2014-Dec-13 18:33N 51°15' E 006°46'3 3.4
2014-Dec-13 17:32N 51°18' E 006°43'4 3.6
2014-Dec-13 16:27N 51°21' E 006°40'5 3.6
2014-Dec-13 15:08N 51°24' E 006°45'24 3.4
2014-Dec-13 08:15N 51°45' E 006°25'4 5.2
2014-Dec-13 07:33N 51°46' E 006°20'7 5.1
2014-Dec-13 06:14N 51°50' E 006°11'4 5.5
2014-Dec-13 05:30N 51°51' E 006°05'6 4.7
2014-Dec-13 04:11N 51°52' E 005°55'3 4.8
2014-Dec-13 03:33N 51°51' E 005°50'6 5.8
2014-Dec-13 02:33N 51°54' E 005°42'6 6.0
2014-Dec-13 01:33N 51°54' E 005°32'6 5.8
2014-Dec-13 00:33N 51°50' E 005°24'5 5.1
2014-Dec-12 23:33N 51°49' E 005°16'7 6.8
2014-Dec-12 22:33N 51°50' E 005°05'8 7.5
2014-Dec-12 21:33N 51°49' E 004°53'9 8.6
2014-Dec-12 20:34N 51°49' E 004°39'8 8.1
2014-Dec-12 19:33N 51°50' E 004°26'8 8.5
2014-Dec-12 18:33N 51°53' E 004°14'8 8.4
2014-Dec-12 17:33N 51°58' E 004°03'0 0.2
2014-Dec-12 16:33N 51°58' E 004°03'1 1.0
2014-Dec-12 15:33N 51°58' E 004°04'1 0.8
2014-Dec-12 14:33N 51°57' E 004°05'0 0.0
2014-Dec-12 13:33N 51°57' E 004°05'0 0.0
2014-Dec-12 12:33N 51°57' E 004°05'0 0.0
2014-Dec-12 11:33N 51°57' E 004°05'0 0.0
2014-Dec-12 10:33N 51°57' E 004°05'0 0.0
2014-Dec-12 09:33N 51°57' E 004°05'0 0.0
2014-Dec-12 08:33N 51°57' E 004°05'0 0.0
2014-Dec-12 07:33N 51°57' E 004°05'0 0.0
2014-Dec-12 06:33N 51°57' E 004°05'0 0.0
2014-Dec-12 05:33N 51°57' E 004°05'0 0.0
2014-Dec-12 04:33N 51°57' E 004°05'  
Track history (hours):
 
Tides and Currents Weather Stations Pressure Air Temp Water Temp Dewpoint Dewpoint Depression Visibility Wind Speed Wind Dir Waves Ship Positions

Contargo III & Xii

Last reported at 2014-Dec-22 04:31 UTC. Time now 2014-Dec-22 05:34 UTC.
Position N 51°52' E 005°57'.

Length 182 m; draft 1 m.

Type: Ship. MMSI: 244670090.

Date/timePositionNaut miles runAvg speedWind from/ knotsBaromVisibWave heightAir tempDewpointWater temp
2014-Dec-22 04:31N 51°52' E 005°57'9 8.6
2014-Dec-22 03:29N 51°50' E 006°11'10 9.8
2014-Dec-22 02:25N 51°45' E 006°25'15 7.7
2014-Dec-22 00:31N 51°34' E 006°41'15 7.1
2014-Dec-21 22:24N 51°19' E 006°44'5 6.3
2014-Dec-21 21:34N 51°14' E 006°44'6 6.1
2014-Dec-21 20:34N 51°10' E 006°51'17 8.2
2014-Dec-21 18:26N 50°54' E 007°02'105 7.0
2014-Dec-21 03:24N 49°25' E 008°30'7 8.0
2014-Dec-21 02:29N 49°18' E 008°29'9 9.3
2014-Dec-21 01:34N 49°11' E 008°22'1010.1
2014-Dec-21 00:34N 49°01' E 008°18'1010.2
2014-Dec-20 23:33N 48°53' E 008°08'5 4.8
2014-Dec-20 22:33N 48°48' E 008°06'7 7.1
2014-Dec-20 21:33N 48°43' E 007°58'66 3.8
2014-Dec-20 04:15N 47°40' E 007°31'2 2.5
2014-Dec-20 03:33N 47°39' E 007°32'3 3.2
2014-Dec-20 02:30N 47°36' E 007°35'0 0.0
2014-Dec-20 01:34N 47°36' E 007°36'0 0.0
2014-Dec-20 00:34N 47°36' E 007°36'0 0.0
2014-Dec-19 23:34N 47°36' E 007°35'0 0.0
2014-Dec-19 22:33N 47°36' E 007°35'0 0.0
2014-Dec-19 21:34N 47°36' E 007°35'1 0.6
2014-Dec-19 19:34N 47°35' E 007°36'0 0.0
2014-Dec-19 18:33N 47°35' E 007°36'0 0.1
2014-Dec-19 17:33N 47°35' E 007°36'0 0.0
2014-Dec-19 16:33N 47°35' E 007°36'0 0.0
2014-Dec-19 15:33N 47°35' E 007°36'0 0.0
2014-Dec-19 14:33N 47°35' E 007°36'0 0.0
2014-Dec-19 13:33N 47°35' E 007°36'0 0.0
2014-Dec-19 12:33N 47°35' E 007°36'0 0.0
2014-Dec-19 11:33N 47°35' E 007°36'0 0.1
2014-Dec-19 10:34N 47°35' E 007°36'2 1.7
2014-Dec-19 09:34N 47°33' E 007°36'2 1.7
2014-Dec-19 08:34N 47°34' E 007°38'1 0.6
2014-Dec-19 07:34N 47°33' E 007°39'0 0.0
2014-Dec-19 06:33N 47°33' E 007°39'0 0.0
2014-Dec-19 05:33N 47°33' E 007°39'0 0.0
2014-Dec-19 04:34N 47°33' E 007°39'0 0.0
2014-Dec-19 03:33N 47°33' E 007°39'0 0.0
2014-Dec-19 02:33N 47°33' E 007°39'0 0.0
2014-Dec-19 01:33N 47°33' E 007°39'0 0.0
2014-Dec-19 00:33N 47°33' E 007°39'0 0.0
2014-Dec-18 23:33N 47°33' E 007°39'0 0.0
2014-Dec-18 22:33N 47°33' E 007°39'0 0.0
2014-Dec-18 21:33N 47°33' E 007°39'0 0.0
2014-Dec-18 20:34N 47°33' E 007°39'0 0.0
2014-Dec-18 19:34N 47°33' E 007°39'0 0.0
2014-Dec-18 18:34N 47°33' E 007°39'0 0.0
2014-Dec-18 17:34N 47°33' E 007°39'0 0.3
2014-Dec-18 16:34N 47°33' E 007°39'0 0.0
2014-Dec-18 14:34N 47°33' E 007°39'0 0.0
2014-Dec-18 13:33N 47°33' E 007°39'0 0.2
2014-Dec-18 12:33N 47°33' E 007°39'3 2.4
2014-Dec-18 11:14N 47°35' E 007°35'1 0.9
2014-Dec-18 10:33N 47°35' E 007°36'0 0.0
2014-Dec-18 09:33N 47°35' E 007°36'0 0.0
2014-Dec-18 08:33N 47°35' E 007°36'0 0.0
2014-Dec-18 07:33N 47°35' E 007°36'0 0.0
2014-Dec-18 06:33N 47°35' E 007°36'0 0.0
2014-Dec-18 05:34N 47°35' E 007°36'0 0.0
2014-Dec-18 04:34N 47°35' E 007°36'0 0.0
2014-Dec-18 03:34N 47°35' E 007°36'0 0.0
2014-Dec-18 02:33N 47°35' E 007°36'0 0.0
2014-Dec-18 01:34N 47°35' E 007°36'0 0.0
2014-Dec-18 00:34N 47°35' E 007°36'0 0.0
2014-Dec-17 23:33N 47°35' E 007°36'0 0.0
2014-Dec-17 22:33N 47°35' E 007°36'0 0.0
2014-Dec-17 21:33N 47°35' E 007°36'0 0.1
2014-Dec-17 20:33N 47°35' E 007°36'0 0.0
2014-Dec-17 19:33N 47°35' E 007°36'0 0.0
2014-Dec-17 18:33N 47°35' E 007°36'0 0.0
2014-Dec-17 17:33N 47°35' E 007°36'0 0.0
2014-Dec-17 16:34N 47°35' E 007°36'0 0.0
2014-Dec-17 15:34N 47°35' E 007°36'0 0.0
2014-Dec-17 14:34N 47°35' E 007°36'0 0.0
2014-Dec-17 13:34N 47°35' E 007°36'0 0.0
2014-Dec-17 12:33N 47°35' E 007°36'1 1.4
2014-Dec-17 11:34N 47°36' E 007°35'0 0.0
2014-Dec-17 10:33N 47°36' E 007°35'0 0.0
2014-Dec-17 09:33N 47°36' E 007°35'0 0.0
2014-Dec-17 08:33N 47°36' E 007°35'0 0.0
2014-Dec-17 07:33N 47°36' E 007°35'0 0.0
2014-Dec-17 06:33N 47°36' E 007°35'0 0.0
2014-Dec-17 05:33N 47°36' E 007°35'0 0.0
2014-Dec-17 04:33N 47°36' E 007°35'0 0.0
2014-Dec-17 03:34N 47°36' E 007°35'0 0.0
2014-Dec-17 02:34N 47°36' E 007°35'0 0.0
2014-Dec-17 01:34N 47°36' E 007°35'0 0.0
2014-Dec-17 00:33N 47°36' E 007°35'0 0.0
2014-Dec-16 23:33N 47°36' E 007°35'0 0.0
2014-Dec-16 22:33N 47°36' E 007°35'0 0.0
2014-Dec-16 21:33N 47°36' E 007°35'0 0.3
2014-Dec-16 20:34N 47°37' E 007°35'3 3.4
2014-Dec-16 19:33N 47°39' E 007°32'63 2.6
2014-Dec-15 19:32N 48°40' E 007°54'4 4.5
2014-Dec-15 18:34N 48°44' E 007°58'7 7.0
2014-Dec-15 17:32N 48°49' E 008°06'5 3.7
2014-Dec-15 16:09N 48°54' E 008°08'3 4.4
2014-Dec-15 15:33N 48°56' E 008°11'4 3.9
2014-Dec-15 14:33N 48°59' E 008°15'4 4.2
2014-Dec-15 13:32N 49°02' E 008°18'4 4.4
2014-Dec-15 12:33N 49°06' E 008°22'4 4.0
2014-Dec-15 11:34N 49°10' E 008°22'4 3.6
2014-Dec-15 10:34N 49°13' E 008°23'4 4.3
2014-Dec-15 09:33N 49°17' E 008°27'3 2.8
2014-Dec-15 08:34N 49°20' E 008°27'6 4.6
2014-Dec-15 07:16N 49°25' E 008°30'3 3.8
2014-Dec-15 06:24N 49°28' E 008°27'98 3.8
2014-Dec-14 04:28N 50°49' E 007°02'3 3.0
2014-Dec-14 03:33N 50°51' E 006°60'3 3.0
2014-Dec-14 02:33N 50°54' E 007°02'4 3.6
2014-Dec-14 01:25N 50°57' E 006°58'10 3.3
2014-Dec-13 22:32N 51°06' E 006°53'4 3.9
2014-Dec-13 21:34N 51°10' E 006°51'2 2.1
2014-Dec-13 20:34N 51°10' E 006°48'3 3.5
2014-Dec-13 19:34N 51°13' E 006°44'2 2.3
2014-Dec-13 18:33N 51°15' E 006°46'3 3.4
2014-Dec-13 17:32N 51°18' E 006°43'4 3.6
2014-Dec-13 16:27N 51°21' E 006°40'5 3.6
2014-Dec-13 15:08N 51°24' E 006°45'24 3.4
2014-Dec-13 08:15N 51°45' E 006°25'4 5.2
2014-Dec-13 07:33N 51°46' E 006°20'7 5.1
2014-Dec-13 06:14N 51°50' E 006°11'4 5.5
2014-Dec-13 05:30N 51°51' E 006°05'6 4.7
2014-Dec-13 04:11N 51°52' E 005°55'3 4.8
2014-Dec-13 03:33N 51°51' E 005°50'6 5.8
2014-Dec-13 02:33N 51°54' E 005°42'6 6.0
2014-Dec-13 01:33N 51°54' E 005°32'6 5.8
2014-Dec-13 00:33N 51°50' E 005°24'5 5.1
2014-Dec-12 23:33N 51°49' E 005°16'7 6.8
2014-Dec-12 22:33N 51°50' E 005°05'8 7.5
2014-Dec-12 21:33N 51°49' E 004°53'9 8.6
2014-Dec-12 20:34N 51°49' E 004°39'8 8.1
2014-Dec-12 19:33N 51°50' E 004°26'8 8.5
2014-Dec-12 18:33N 51°53' E 004°14'8 8.4
2014-Dec-12 17:33N 51°58' E 004°03'0 0.2
2014-Dec-12 16:33N 51°58' E 004°03'1 1.0
2014-Dec-12 15:33N 51°58' E 004°04'1 0.8
2014-Dec-12 14:33N 51°57' E 004°05'0 0.0
2014-Dec-12 13:33N 51°57' E 004°05'0 0.0
2014-Dec-12 12:33N 51°57' E 004°05'0 0.0
2014-Dec-12 11:33N 51°57' E 004°05'0 0.0
2014-Dec-12 10:33N 51°57' E 004°05'0 0.0
2014-Dec-12 09:33N 51°57' E 004°05'0 0.0
2014-Dec-12 08:33N 51°57' E 004°05'0 0.0
2014-Dec-12 07:33N 51°57' E 004°05'0 0.0
2014-Dec-12 06:33N 51°57' E 004°05'0 0.0
2014-Dec-12 05:33N 51°57' E 004°05'0 0.0
2014-Dec-12 04:33N 51°57' E 004°05'  

Dump ship's entire track history